Alto, Louisiana
Current Conditions -  °F | °C
As of 7:53 AM on Monday 22 Dec 2014 (Local Time) from KMLU Reporting Station
Haze Haze  
Wind Chill: 11°   Ceiling: 300
Heat Index: 11°   Visibility: 1mi
Dew Point: 11°   Wind: 6mph
Humidity: 100%   Direction: 160°SSE
Pressure: 29.81"   Gusts: NA
Location:  32.4475°N, 91.7992°W
Report Text: KMLU 221353Z 16005KT 1SM BR OVC003 11/11 A2981 RMK AO2 SLP094 T01060106
Loading
Personal Weather Stations






























Interactive Weather Map New forecast layout! Learn more

10-Day Weather Forecast

Advertisements
Track Severe Weather on mobile